Time;durP1;ratioP1;P1;durP2;ratioP2;P2;SDS_P1;SDS_P2;PMS_P1;PMS_P2;Temp;Humidity;BMP_temperature;BMP_pressure;BME280_temperature;BME280_humidity;BME280_pressure;Samples;Min_cycle;Max_cycle;Signal;HPM_P1;HPM_P2
2022/07/29 00:02:10;;;;;;;5.70;1.58;;;;;;;19.50;51.82;101692.53;4946968;28;20031;-62
2022/07/29 00:04:36;;;;;;;3.53;1.27;;;;;;;19.47;51.97;101684.69;4949619;28;20031;-64
2022/07/29 00:07:03;;;;;;;4.13;1.25;;;;;;;19.51;52.89;101691.66;4947619;28;20043;-64
2022/07/29 00:09:28;;;;;;;3.90;1.40;;;;;;;19.49;52.63;101693.41;4948184;28;20139;-63
2022/07/29 00:11:58;;;;;;;2.63;1.30;;;;;;;19.49;52.38;101692.53;4946497;28;20027;-63
2022/07/29 00:14:24;;;;;;;2.90;1.25;;;;;;;19.50;52.85;101691.66;4948097;28;20050;-65
2022/07/29 00:16:49;;;;;;;6.38;1.58;;;;;;;19.48;52.20;101696.88;4953984;28;20395;-64
2022/07/29 00:19:15;;;;;;;3.15;1.40;;;;;;;19.52;52.81;101697.75;4947638;28;20030;-64
2022/07/29 00:21:40;;;;;;;2.83;1.30;;;;;;;19.53;52.70;101696.88;4946691;28;20051;-64
2022/07/29 00:24:06;;;;;;;3.38;1.38;;;;;;;19.47;53.30;101695.13;4947976;28;20024;-64
2022/07/29 00:26:32;;;;;;;3.45;1.30;;;;;;;19.52;53.12;101696.00;4946135;28;20077;-61
2022/07/29 00:29:02;;;;;;;2.90;1.50;;;;;;;19.51;53.29;101690.78;4945700;28;20055;-65
2022/07/29 00:31:27;;;;;;;4.95;1.40;;;;;;;19.48;53.25;101685.59;4945978;28;20032;-64
2022/07/29 00:33:53;;;;;;;2.35;1.38;;;;;;;19.50;52.84;101683.84;4944946;28;20047;-66
2022/07/29 00:36:20;;;;;;;3.28;1.50;;;;;;;19.46;52.96;101682.94;4947778;28;20032;-64
2022/07/29 00:38:49;;;;;;;2.55;1.40;;;;;;;19.45;53.29;101670.78;4947530;28;20046;-64
2022/07/29 00:41:15;;;;;;;5.72;1.48;;;;;;;19.43;53.28;101676.84;4949174;28;20026;-63
2022/07/29 00:43:42;;;;;;;4.53;1.42;;;;;;;19.35;53.34;101678.53;4954195;28;20037;-64
2022/07/29 00:46:07;;;;;;;7.45;1.50;;;;;;;19.34;53.45;101684.63;4948932;28;20363;-63
2022/07/29 00:48:33;;;;;;;6.80;1.52;;;;;;;19.35;53.29;101679.41;4948996;28;20043;-64
2022/07/29 00:51:01;;;;;;;5.78;1.40;;;;;;;19.35;53.71;101676.81;4943518;28;20086;-65
2022/07/29 00:53:26;;;;;;;4.43;1.40;;;;;;;19.29;53.42;101680.28;4945766;29;20087;-66
2022/07/29 00:55:54;;;;;;;5.07;1.60;;;;;;;19.32;53.50;101687.22;4946818;28;20043;-65
2022/07/29 00:58:19;;;;;;;5.63;1.33;;;;;;;19.31;53.39;101695.06;4951325;28;20100;-65
2022/07/29 01:00:45;;;;;;;4.85;1.45;;;;;;;19.33;53.45;101701.13;4950080;28;20118;-65
2022/07/29 01:03:10;;;;;;;2.60;1.33;;;;;;;19.27;53.72;101696.75;4946068;28;20407;-65
2022/07/29 01:05:36;;;;;;;3.25;1.60;;;;;;;19.30;53.40;101712.44;4950772;28;20067;-65
2022/07/29 01:08:02;;;;;;;4.03;1.20;;;;;;;19.32;53.25;101718.53;4949003;28;20405;-65
2022/07/29 01:10:29;;;;;;;2.72;1.35;;;;;;;19.32;53.69;101730.69;4949490;28;20038;-65
2022/07/29 01:12:57;;;;;;;2.80;1.30;;;;;;;19.29;53.34;101727.22;4950357;28;20047;-65
2022/07/29 01:15:23;;;;;;;2.90;1.38;;;;;;;19.31;53.39;101721.13;4950369;28;20031;-65
2022/07/29 01:18:16;;;;;;;4.28;1.50;;;;;;;19.35;53.51;101704.63;4950321;28;20049;-65
2022/07/29 01:20:50;;;;;;;5.15;1.30;;;;;;;19.37;53.00;101700.31;4948596;28;20039;-66
2022/07/29 01:23:37;;;;;;;5.35;1.33;;;;;;;19.41;52.99;101689.00;4949664;28;20027;-65
2022/07/29 01:26:18;;;;;;;5.00;1.60;;;;;;;19.24;53.71;101676.78;4949634;28;20084;-65
2022/07/29 01:29:10;;;;;;;3.72;1.58;;;;;;;19.20;53.72;101669.78;4947582;28;20045;-65
2022/07/29 01:32:01;;;;;;;7.00;1.38;;;;;;;19.07;54.49;101660.16;4946795;28;20146;-65
2022/07/29 01:34:52;;;;;;;2.90;1.23;;;;;;;19.11;54.62;101658.44;4946872;28;20106;-65
2022/07/29 01:37:22;;;;;;;4.90;1.63;;;;;;;19.00;54.90;101656.66;4952902;28;20104;-64
2022/07/29 01:39:51;;;;;;;7.63;1.85;;;;;;;18.93;55.29;101654.00;4948083;28;20026;-65
2022/07/29 01:42:38;;;;;;;5.25;1.52;;;;;;;18.94;55.04;101646.19;4945913;29;20474;-65
2022/07/29 01:45:41;;;;;;;3.58;1.50;;;;;;;18.95;54.99;101636.63;4947454;28;20035;-64
2022/07/29 01:48:15;;;;;;;4.47;1.60;;;;;;;18.86;55.71;101631.34;4986008;28;20136;-65
2022/07/29 01:50:48;;;;;;;5.93;1.70;;;;;;;18.90;56.04;101627.91;4952975;28;20089;-64
2022/07/29 01:53:21;;;;;;;4.47;1.70;;;;;;;18.84;56.57;101615.72;4948382;28;20028;-64
2022/07/29 01:55:48;;;;;;;2.33;1.35;;;;;;;18.89;56.23;101627.03;4942955;28;20043;-65
2022/07/29 01:58:17;;;;;;;3.88;1.40;;;;;;;18.86;56.71;101620.91;4948266;28;20042;-65
2022/07/29 02:00:44;;;;;;;4.05;1.48;;;;;;;18.84;56.38;101626.13;4949438;29;20042;-65
2022/07/29 02:03:12;;;;;;;3.38;1.58;;;;;;;18.82;57.10;101625.25;4949755;28;20123;-65
2022/07/29 02:05:40;;;;;;;7.75;1.42;;;;;;;18.88;56.69;101627.91;4946765;28;20027;-65
2022/07/29 02:08:07;;;;;;;2.75;1.50;;;;;;;18.88;56.52;101621.81;4949209;28;20473;-64
2022/07/29 02:10:34;;;;;;;4.95;1.70;;;;;;;18.85;56.52;101619.19;4948990;28;20053;-65
2022/07/29 02:13:02;;;;;;;7.05;1.60;;;;;;;18.85;56.18;101609.63;4952326;28;20549;-64
2022/07/29 02:15:31;;;;;;;4.82;1.60;;;;;;;18.84;56.12;101601.81;4946622;28;20073;-65
2022/07/29 02:18:23;;;;;;;10.57;1.70;;;;;;;18.83;56.19;101595.72;4941368;28;20038;-65
2022/07/29 02:20:51;;;;;;;3.80;1.45;;;;;;;18.76;56.35;101593.97;4940246;28;20055;-65
2022/07/29 02:23:21;;;;;;;4.07;1.50;;;;;;;18.78;56.55;101592.22;4950115;28;20038;-65
2022/07/29 02:25:50;;;;;;;7.40;1.88;;;;;;;18.72;56.78;101592.19;4943925;28;20035;-64
2022/07/29 02:28:17;;;;;;;6.47;1.60;;;;;;;18.69;56.70;101597.41;4953982;28;20030;-65
2022/07/29 02:30:43;;;;;;;7.50;1.48;;;;;;;18.65;57.08;101591.25;4949148;28;20081;-65
2022/07/29 02:33:13;;;;;;;5.45;1.80;;;;;;;18.68;57.60;101587.81;4941186;28;20340;-65
2022/07/29 02:35:40;;;;;;;4.93;1.50;;;;;;;18.62;57.48;101590.34;4950510;28;20109;-64
2022/07/29 02:40:54;;;;;;;7.38;1.52;;;;;;;18.60;57.55;101584.25;4948838;28;20397;-66
2022/07/29 02:43:21;;;;;;;5.57;1.65;;;;;;;18.61;57.46;101589.47;4947455;28;20685;-66
2022/07/29 02:45:49;;;;;;;3.35;1.60;;;;;;;18.61;57.90;101599.91;4948008;28;20031;-65
2022/07/29 02:48:16;;;;;;;4.53;1.77;;;;;;;18.59;57.78;101605.97;4947659;28;20077;-64
2022/07/29 02:50:51;;;;;;;4.97;1.30;;;;;;;18.62;57.56;101604.25;4950726;28;20036;-66
2022/07/29 02:53:19;;;;;;;5.65;1.65;;;;;;;18.62;58.61;101609.44;4948520;28;20088;-65
2022/07/29 02:55:54;;;;;;;3.42;1.70;;;;;;;18.64;58.05;101604.28;4947903;28;20094;-65
2022/07/29 02:58:28;;;;;;;6.25;1.67;;;;;;;18.57;57.91;101605.97;4945068;29;20038;-64
2022/07/29 03:00:57;;;;;;;4.65;1.67;;;;;;;18.54;58.45;101587.69;4947817;28;20387;-65
2022/07/29 03:03:28;;;;;;;3.95;1.60;;;;;;;18.54;58.47;101597.25;4942155;28;20041;-64
2022/07/29 03:05:59;;;;;;;3.70;1.30;;;;;;;18.55;58.54;101592.03;4946724;29;20095;-64
2022/07/29 03:08:26;;;;;;;2.80;1.50;;;;;;;18.48;58.80;101591.13;4947243;28;20050;-65
2022/07/29 03:10:53;;;;;;;7.63;1.52;;;;;;;18.42;59.02;101600.63;4947021;28;20035;-65
2022/07/29 03:13:19;;;;;;;4.13;1.60;;;;;;;18.45;59.28;101608.47;4947214;28;20032;-64
2022/07/29 03:15:45;;;;;;;3.50;1.50;;;;;;;18.45;59.65;101606.75;4945884;28;20042;-65
2022/07/29 03:18:11;;;;;;;4.07;1.30;;;;;;;18.46;59.95;101610.22;4942214;28;20027;-66
2022/07/29 03:20:38;;;;;;;3.33;1.60;;;;;;;18.42;59.53;101606.72;4943486;29;20390;-64
2022/07/29 03:23:04;;;;;;;3.72;1.58;;;;;;;18.40;59.89;101610.19;4947425;28;20056;-64
2022/07/29 03:25:30;;;;;;;3.63;1.52;;;;;;;18.40;59.29;101608.44;4948725;28;20039;-64
2022/07/29 03:27:56;;;;;;;1.90;1.33;;;;;;;18.42;59.72;101613.66;4946454;29;20110;-64
2022/07/29 03:30:22;;;;;;;6.97;1.88;;;;;;;18.43;59.94;101615.38;4960119;28;20530;-64
2022/07/29 03:32:48;;;;;;;3.15;1.50;;;;;;;18.36;60.05;101611.88;4947337;28;20031;-64
2022/07/29 03:35:16;;;;;;;7.43;1.98;;;;;;;18.40;59.63;101615.38;4947548;28;20088;-64
2022/07/29 03:37:41;;;;;;;3.13;1.67;;;;;;;18.44;59.57;101620.63;4949573;28;20067;-65
2022/07/29 03:40:10;;;;;;;5.13;1.67;;;;;;;18.42;59.91;101624.06;4948460;28;20612;-64
2022/07/29 03:42:37;;;;;;;3.47;1.80;;;;;;;18.36;60.15;101614.47;4948932;28;20039;-65
2022/07/29 03:45:06;;;;;;;3.70;1.90;;;;;;;18.34;60.16;101604.91;4946659;28;20024;-64
2022/07/29 03:47:32;;;;;;;;;;;;;;;18.58;58.83;101604.22;4948945;28;20032;-66
2022/07/29 03:50:06;;;;;;;5.15;1.88;;;;;;;18.43;60.00;101607.56;4946805;28;19930;-64
2022/07/29 03:52:31;;;;;;;5.82;1.58;;;;;;;18.34;60.65;101604.91;4949762;28;20035;-65
2022/07/29 03:54:57;;;;;;;4.45;1.80;;;;;;;18.33;60.63;101598.84;4945294;28;20090;-65
2022/07/29 03:57:27;;;;;;;2.35;1.60;;;;;;;18.33;60.83;101603.19;4949118;28;20043;-64
2022/07/29 03:59:53;;;;;;;4.28;1.50;;;;;;;18.27;61.54;101609.22;4942032;28;20036;-66
2022/07/29 04:02:19;;;;;;;8.65;2.10;;;;;;;18.20;61.83;101613.50;4944956;28;20023;-65
2022/07/29 04:04:44;;;;;;;4.43;2.10;;;;;;;18.10;62.09;101618.59;4948064;28;20556;-64
2022/07/29 04:07:14;;;;;;;5.47;2.20;;;;;;;18.08;63.02;101618.59;4945628;28;20047;-65
2022/07/29 04:09:39;;;;;;;4.72;1.98;;;;;;;18.09;62.64;101612.53;4950093;28;20077;-63
2022/07/29 04:12:05;;;;;;;6.03;2.10;;;;;;;18.09;62.77;101615.13;4945772;28;20035;-65
2022/07/29 04:14:32;;;;;;;5.90;1.90;;;;;;;18.10;62.52;101603.84;4944974;28;20035;-64
2022/07/29 04:16:58;;;;;;;4.18;2.40;;;;;;;18.09;62.55;101601.25;4950946;28;20028;-64
2022/07/29 04:19:23;;;;;;;3.35;1.90;;;;;;;18.08;63.18;101605.56;4952841;28;20031;-64
2022/07/29 04:21:48;;;;;;;3.97;2.03;;;;;;;18.08;62.85;101602.97;4952239;28;20058;-64
2022/07/29 04:24:14;;;;;;;7.45;2.20;;;;;;;18.06;63.21;101599.47;4947456;28;20142;-64
2022/07/29 04:26:39;;;;;;;4.07;2.08;;;;;;;18.03;63.49;101599.44;4948529;28;20112;-64
2022/07/29 04:29:05;;;;;;;6.15;2.10;;;;;;;18.05;63.46;101596.84;4949591;29;20019;-64
2022/07/29 04:31:30;;;;;;;4.15;2.30;;;;;;;18.00;63.52;101593.34;4948563;28;20035;-63
2022/07/29 04:33:55;;;;;;;4.57;2.30;;;;;;;18.00;63.73;101593.34;4949653;28;20042;-63
2022/07/29 04:36:21;;;;;;;7.13;2.38;;;;;;;17.94;64.22;101583.75;4952364;28;20039;-64
2022/07/29 04:38:46;;;;;;;5.40;2.35;;;;;;;17.97;64.42;101589.00;4954051;28;20035;-62
2022/07/29 04:41:11;;;;;;;4.82;2.20;;;;;;;17.94;64.09;101599.34;4937117;29;20095;-65
2022/07/29 04:43:37;;;;;;;4.55;2.33;;;;;;;17.88;64.61;101620.97;4958225;28;20088;-60
2022/07/29 04:46:03;;;;;;;5.00;2.30;;;;;;;17.86;65.00;101625.31;4951934;28;20035;-66
2022/07/29 04:48:29;;;;;;;2.85;2.30;;;;;;;17.84;64.60;101628.75;4950989;28;20039;-65
2022/07/29 04:50:55;;;;;;;8.65;2.58;;;;;;;17.80;65.01;101633.03;4947376;28;20035;-65
2022/07/29 04:53:21;;;;;;;6.50;2.38;;;;;;;17.81;65.14;101633.91;4951097;28;20034;-64
2022/07/29 04:55:46;;;;;;;5.82;2.40;;;;;;;17.77;65.48;101635.59;4954823;28;20188;-65
2022/07/29 04:58:11;;;;;;;3.83;2.30;;;;;;;17.82;65.23;101633.91;4951327;28;20035;-66
2022/07/29 05:00:37;;;;;;;5.38;2.58;;;;;;;17.74;65.76;101632.09;4950951;28;20039;-64
2022/07/29 05:03:03;;;;;;;7.63;2.70;;;;;;;17.79;65.71;101640.84;4946119;28;20046;-64
2022/07/29 05:05:29;;;;;;;5.78;2.70;;;;;;;17.75;65.19;101636.44;4947992;28;20035;-63
2022/07/29 05:07:55;;;;;;;5.70;2.50;;;;;;;17.74;65.33;101632.09;4949243;28;20098;-64
2022/07/29 05:10:20;;;;;;;6.90;2.50;;;;;;;17.76;65.38;101640.78;4951054;28;20657;-64
2022/07/29 05:12:46;;;;;;;3.85;2.47;;;;;;;17.73;65.79;101631.25;4949072;28;20057;-64
2022/07/29 05:15:11;;;;;;;6.22;2.88;;;;;;;17.77;65.77;101630.41;4949744;28;20478;-63
2022/07/29 05:17:37;;;;;;;3.85;2.65;;;;;;;17.73;65.68;101639.03;4948285;28;20785;-64
2022/07/29 05:20:03;;;;;;;6.50;2.67;;;;;;;17.64;65.95;101641.50;4951724;28;20473;-65
2022/07/29 05:22:28;;;;;;;6.43;2.70;;;;;;;17.59;66.93;101653.56;4944495;28;20117;-64
2022/07/29 05:24:54;;;;;;;4.90;2.58;;;;;;;17.65;66.39;101675.34;4946376;28;20024;-63
2022/07/29 05:27:19;;;;;;;4.55;2.70;;;;;;;17.64;66.26;101668.38;4949609;28;20031;-65
2022/07/29 05:29:45;;;;;;;6.97;2.80;;;;;;;17.64;66.70;101665.75;4946816;28;20085;-64
2022/07/29 05:32:10;;;;;;;4.63;2.78;;;;;;;17.63;66.81;101661.44;4949501;28;20122;-63
2022/07/29 05:34:36;;;;;;;8.70;2.97;;;;;;;17.65;66.43;101657.13;4950786;28;20489;-65
2022/07/29 05:37:01;;;;;;;6.60;2.70;;;;;;;17.68;66.55;101661.50;4946976;28;20118;-66
2022/07/29 05:39:27;;;;;;;6.05;2.78;;;;;;;17.65;66.68;101664.03;4949393;28;20432;-64
2022/07/29 05:41:52;;;;;;;7.80;3.20;;;;;;;17.66;66.11;101653.69;4945864;28;20035;-65
2022/07/29 05:44:18;;;;;;;5.72;2.63;;;;;;;17.66;65.96;101656.28;4947496;28;20036;-63
2022/07/29 05:46:43;;;;;;;4.30;2.50;;;;;;;17.63;66.68;101658.81;4945490;28;20042;-64
2022/07/29 05:49:08;;;;;;;5.93;3.30;;;;;;;17.67;66.29;101665.81;4950752;28;20035;-65
2022/07/29 05:51:34;;;;;;;7.00;3.05;;;;;;;17.63;66.59;101665.75;4951851;28;20046;-64
2022/07/29 05:53:59;;;;;;;8.35;3.00;;;;;;;17.69;66.82;101665.84;4942780;28;20031;-64
2022/07/29 05:56:25;;;;;;;11.10;2.95;;;;;;;17.67;66.28;101671.03;4951282;28;20074;-65
2022/07/29 05:58:51;;;;;;;6.00;2.88;;;;;;;17.67;66.58;101671.03;4942819;28;20625;-64
2022/07/29 06:01:17;;;;;;;5.90;2.78;;;;;;;17.63;66.57;101666.63;4943343;28;20363;-64
2022/07/29 06:03:42;;;;;;;5.78;2.95;;;;;;;17.68;66.46;101664.09;4947729;28;20046;-65
2022/07/29 06:06:08;;;;;;;7.53;3.17;;;;;;;17.67;66.35;101668.41;4950443;28;20436;-64
2022/07/29 06:08:34;;;;;;;4.25;2.75;;;;;;;17.70;66.69;101676.25;4949236;28;20031;-65
2022/07/29 06:11:00;;;;;;;6.88;3.10;;;;;;;17.69;66.47;101666.69;4949689;28;20039;-65
2022/07/29 06:13:26;;;;;;;14.43;3.70;;;;;;;17.65;66.95;101670.16;4950107;28;20031;-65
2022/07/29 06:15:51;;;;;;;7.55;3.00;;;;;;;17.66;66.65;101668.41;4947461;28;20038;-65
2022/07/29 06:18:17;;;;;;;6.13;2.97;;;;;;;17.63;66.32;101664.03;4948917;28;20044;-64
2022/07/29 06:20:42;;;;;;;4.45;2.85;;;;;;;17.66;66.73;101671.88;4943437;28;20031;-64
2022/07/29 06:23:08;;;;;;;7.72;2.90;;;;;;;17.68;66.68;101662.34;4951081;28;20051;-65
2022/07/29 06:25:35;;;;;;;8.20;3.13;;;;;;;17.68;66.59;101669.28;4950606;28;20112;-64
2022/07/29 06:28:00;;;;;;;5.82;2.97;;;;;;;17.64;66.45;101670.09;4947573;29;20062;-64
2022/07/29 06:30:26;;;;;;;6.47;3.55;;;;;;;17.62;66.72;101664.88;4949572;28;20054;-65
2022/07/29 06:32:51;;;;;;;7.15;3.10;;;;;;;17.67;66.64;101665.81;4950624;28;20469;-65
2022/07/29 06:35:17;;;;;;;6.30;3.25;;;;;;;17.58;66.77;101672.63;4946563;28;20043;-64
2022/07/29 06:37:42;;;;;;;6.25;3.13;;;;;;;17.72;66.47;101665.91;4948754;28;20043;-66
2022/07/29 06:42:52;;;;;;;5.55;3.17;;;;;;;17.82;66.61;101662.53;4946392;28;20530;-65
2022/07/29 06:45:18;;;;;;;8.70;3.60;;;;;;;17.80;65.88;101661.66;4949035;28;20070;-64
2022/07/29 06:47:43;;;;;;;7.22;3.08;;;;;;;17.83;66.25;101672.09;4946748;28;20474;-64
2022/07/29 06:50:12;;;;;;;7.13;3.50;;;;;;;17.79;66.40;101654.72;4948061;28;20050;-64
2022/07/29 06:52:38;;;;;;;12.35;4.07;;;;;;;17.91;66.08;101664.38;4949427;28;20031;-65
2022/07/29 06:55:04;;;;;;;7.38;3.45;;;;;;;17.94;66.74;101672.22;4948188;28;20048;-66
2022/07/29 06:57:29;;;;;;;5.35;3.40;;;;;;;17.90;66.18;101671.31;4948724;28;20027;-65
2022/07/29 06:59:58;;;;;;;9.05;3.25;;;;;;;17.96;66.04;101678.31;4946101;28;20051;-64
2022/07/29 07:02:26;;;;;;;6.73;3.90;;;;;;;17.95;65.73;101676.56;4946307;28;20031;-65
2022/07/29 07:04:52;;;;;;;7.53;3.30;;;;;;;17.91;65.56;101672.19;4945541;28;20466;-66
2022/07/29 07:07:17;;;;;;;6.30;3.60;;;;;;;17.95;66.26;101682.63;4944913;28;20120;-64
2022/07/29 07:09:43;;;;;;;5.50;3.55;;;;;;;18.04;66.39;101684.47;4930364;28;20035;-66
2022/07/29 07:12:08;;;;;;;6.95;3.30;;;;;;;18.08;65.54;101690.56;4946484;28;20639;-64
2022/07/29 07:14:34;;;;;;;12.07;3.45;;;;;;;18.08;64.98;101686.25;4945105;28;20429;-64
2022/07/29 07:17:00;;;;;;;8.32;3.25;;;;;;;18.09;65.55;101679.31;4946218;28;20470;-64
2022/07/29 07:19:26;;;;;;;9.95;3.28;;;;;;;18.10;65.99;101686.25;4946271;29;20170;-64
2022/07/29 07:21:52;;;;;;;5.50;3.22;;;;;;;18.06;65.59;101690.56;4944415;28;20142;-65
2022/07/29 07:24:18;;;;;;;5.03;3.10;;;;;;;18.05;65.54;101682.75;4947402;28;20031;-64
2022/07/29 07:26:43;;;;;;;4.95;2.92;;;;;;;18.13;65.60;101688.88;4943444;28;20058;-64
2022/07/29 07:29:08;;;;;;;9.13;3.30;;;;;;;18.12;65.42;101681.94;4949961;28;20067;-65
2022/07/29 07:31:34;;;;;;;6.40;3.30;;;;;;;18.16;66.05;101682.00;4950579;28;20378;-64
2022/07/29 07:33:59;;;;;;;6.80;3.75;;;;;;;18.23;65.81;101681.19;4948982;28;20031;-65
2022/07/29 07:36:24;;;;;;;5.30;3.60;;;;;;;18.25;65.62;101677.72;4949136;28;20083;-64
2022/07/29 07:38:50;;;;;;;6.85;3.88;;;;;;;18.27;65.50;101676.03;4948825;29;20126;-64
2022/07/29 07:41:16;;;;;;;5.13;3.65;;;;;;;18.37;64.47;101678.69;4948959;28;20035;-64
2022/07/29 07:43:41;;;;;;;6.35;3.40;;;;;;;18.46;64.58;101678.81;4956209;28;20042;-64
2022/07/29 07:46:06;;;;;;;11.40;3.42;;;;;;;18.52;64.81;101679.72;4954232;28;20039;-66
2022/07/29 07:48:34;;;;;;;8.27;3.38;;;;;;;18.57;64.52;101678.91;4944629;28;20028;-64
2022/07/29 07:51:00;;;;;;;8.55;3.42;;;;;;;18.72;64.06;101681.63;4945714;28;20077;-65
2022/07/29 07:53:25;;;;;;;5.03;3.53;;;;;;;18.82;63.78;101682.59;4951538;28;20397;-65
2022/07/29 07:55:51;;;;;;;5.45;3.40;;;;;;;18.90;63.87;101687.84;4952386;28;20073;-65
2022/07/29 07:58:16;;;;;;;7.25;3.55;;;;;;;18.95;63.64;101687.03;4951477;28;20027;-65
2022/07/29 08:00:41;;;;;;;7.50;3.58;;;;;;;19.03;63.20;101685.31;4946741;28;20130;-66
2022/07/29 08:03:08;;;;;;;6.15;3.40;;;;;;;19.19;63.70;101682.81;4951579;28;20050;-65
2022/07/29 08:05:33;;;;;;;7.50;3.53;;;;;;;19.37;63.41;101682.06;4950673;28;20036;-65
2022/07/29 08:07:59;;;;;;;9.93;3.65;;;;;;;19.45;62.35;101685.56;4951714;28;20027;-64
2022/07/29 08:13:11;;;;;;;6.25;3.60;;;;;;;19.63;61.43;101695.22;4947159;29;20050;-65
2022/07/29 08:15:39;;;;;;;5.90;3.60;;;;;;;19.69;61.99;101690.91;4952933;28;20030;-64
2022/07/29 08:18:04;;;;;;;7.63;3.58;;;;;;;19.82;61.90;101679.63;4954534;28;20105;-65
2022/07/29 08:20:31;;;;;;;4.95;3.33;;;;;;;19.94;60.98;101688.38;4950390;29;20107;-65
2022/07/29 08:22:57;;;;;;;8.13;3.38;;;;;;;20.06;61.67;101689.25;4948061;29;20086;-65
2022/07/29 08:25:22;;;;;;;12.20;3.67;;;;;;;20.14;62.56;101686.66;4948321;28;20389;-65
2022/07/29 08:27:48;;;;;;;7.57;3.58;;;;;;;20.21;61.31;101693.66;4948550;28;20035;-65
2022/07/29 08:30:13;;;;;;;7.28;3.75;;;;;;;20.29;60.53;101688.44;4954505;28;20023;-66
2022/07/29 08:32:39;;;;;;;7.90;3.40;;;;;;;20.38;59.96;101692.78;4945907;28;20059;-65
2022/07/29 08:35:05;;;;;;;7.00;3.58;;;;;;;20.35;60.20;101683.22;4951168;28;20108;-65
2022/07/29 08:37:30;;;;;;;4.47;3.40;;;;;;;20.52;59.80;101691.13;4946732;29;20035;-66
2022/07/29 08:39:56;;;;;;;7.53;3.40;;;;;;;20.53;58.87;101693.72;4949396;28;20872;-65
2022/07/29 08:42:21;;;;;;;5.88;3.20;;;;;;;20.59;58.87;101691.09;4949676;28;20027;-66
2022/07/29 08:44:47;;;;;;;5.20;3.97;;;;;;;20.60;59.74;101694.59;4953192;28;20030;-65
2022/07/29 08:47:16;;;;;;;5.68;3.25;;;;;;;20.73;59.40;101701.53;4949668;28;20031;-64
2022/07/29 08:49:43;;;;;;;8.45;3.63;;;;;;;20.80;60.84;101703.28;4949050;29;20082;-66
2022/07/29 08:52:10;;;;;;;6.45;3.47;;;;;;;20.82;58.55;101706.78;4950362;28;20037;-64
2022/07/29 08:54:36;;;;;;;11.90;3.30;;;;;;;20.85;58.50;101704.16;4949877;28;20109;-65
2022/07/29 08:57:02;;;;;;;7.93;3.53;;;;;;;20.97;56.75;101699.78;4947008;28;20039;-65
2022/07/29 08:59:30;;;;;;;8.43;3.53;;;;;;;21.08;57.53;101698.03;4951833;28;20035;-64
2022/07/29 09:01:59;;;;;;;7.78;3.60;;;;;;;21.13;56.94;101694.53;4949685;28;20031;-65
2022/07/29 09:04:27;;;;;;;5.15;3.63;;;;;;;21.15;56.72;101692.75;4960490;28;20381;-65
2022/07/29 09:06:56;;;;;;;5.95;3.15;;;;;;;21.23;56.42;101692.75;4953199;28;20101;-66
2022/07/29 09:09:22;;;;;;;7.70;3.50;;;;;;;21.30;55.68;101684.06;4947833;28;20031;-65
2022/07/29 09:11:48;;;;;;;5.85;2.83;;;;;;;21.41;56.62;101692.72;4957678;28;20501;-65
2022/07/29 09:14:13;;;;;;;7.18;3.50;;;;;;;21.40;57.83;101690.97;4936861;28;20067;-65
2022/07/29 09:16:54;;;;;;;6.20;3.10;;;;;;;21.52;57.49;101690.06;4952897;28;20035;-65
2022/07/29 09:19:22;;;;;;;4.65;2.55;;;;;;;21.58;56.31;101694.41;4957037;28;20053;-66
2022/07/29 09:21:57;;;;;;;6.73;2.70;;;;;;;21.70;56.12;101691.72;4914967;28;1107287;-64
2022/07/29 09:24:22;;;;;;;7.25;2.90;;;;;;;21.76;54.78;101688.22;5039211;28;20290;-66
2022/07/29 09:26:48;;;;;;;4.45;2.50;;;;;;;21.73;53.30;101686.50;4953415;28;20035;-63
2022/07/29 09:29:19;;;;;;;3.53;2.42;;;;;;;21.76;53.86;101688.22;4948641;28;20027;-63
2022/07/29 09:31:46;;;;;;;4.88;2.53;;;;;;;21.85;54.91;101694.28;4952395;28;20039;-66
2022/07/29 09:34:14;;;;;;;6.50;2.83;;;;;;;21.98;54.78;101694.22;4949103;28;20050;-65
2022/07/29 09:36:45;;;;;;;6.03;2.60;;;;;;;22.04;54.73;101700.28;4950888;28;20050;-67
2022/07/29 09:39:12;;;;;;;10.07;2.88;;;;;;;22.06;54.28;101692.41;4955637;28;20062;-65
2022/07/29 09:41:52;;;;;;;6.43;2.95;;;;;;;22.11;53.90;101693.28;4955598;29;20031;-64
2022/07/29 09:44:18;;;;;;;7.15;3.10;;;;;;;22.09;53.62;101688.06;4953688;28;20031;-67
2022/07/29 09:46:57;;;;;;;8.73;2.90;;;;;;;22.24;53.87;101700.19;4948716;28;20110;-62
2022/07/29 09:49:23;;;;;;;3.92;2.65;;;;;;;22.26;52.20;101695.78;4948840;28;20039;-65
2022/07/29 09:52:08;;;;;;;6.03;2.78;;;;;;;22.34;53.33;101695.75;4948134;28;20173;-65
2022/07/29 09:54:37;;;;;;;7.25;2.50;;;;;;;22.43;53.39;101696.53;4946970;28;20042;-64
2022/07/29 09:57:04;;;;;;;5.60;2.67;;;;;;;22.44;51.76;101697.41;4949545;28;20031;-65
2022/07/29 09:59:31;;;;;;;5.95;2.58;;;;;;;22.48;51.80;101702.63;4948590;28;20039;-67
2022/07/29 10:01:56;;;;;;;5.60;2.33;;;;;;;22.56;51.66;101704.31;4948614;28;20520;-66
2022/07/29 10:04:22;;;;;;;5.13;2.30;;;;;;;22.56;52.60;101702.56;4948397;28;20035;-66
2022/07/29 10:07:01;;;;;;;6.53;2.63;;;;;;;22.66;52.76;101700.72;4947716;28;20042;-69
2022/07/29 10:09:26;;;;;;;;;;;;;;;22.73;52.66;101705.91;4948345;28;20132;-66
2022/07/29 10:12:15;;;;;;;10.25;2.40;;;;;;;22.78;51.94;101702.38;4950125;28;19925;-64
2022/07/29 10:14:41;;;;;;;5.55;2.35;;;;;;;22.75;51.00;101696.28;4947995;28;20035;-65
2022/07/29 10:17:09;;;;;;;6.88;2.42;;;;;;;22.91;51.01;101702.28;4948554;28;20478;-65
2022/07/29 10:19:36;;;;;;;5.20;2.43;;;;;;;22.89;50.23;101698.81;4950276;28;20035;-65
2022/07/29 10:22:08;;;;;;;5.30;2.80;;;;;;;22.89;49.87;101703.19;4950323;28;20178;-67
2022/07/29 10:24:35;;;;;;;5.05;2.90;;;;;;;22.81;49.56;101683.97;4946807;28;20023;-66
2022/07/29 10:27:01;;;;;;;7.63;2.90;;;;;;;22.85;50.19;101685.69;4948516;28;20031;-64
2022/07/29 10:29:28;;;;;;;7.38;2.60;;;;;;;22.90;50.34;101690.06;4955325;28;20036;-63
2022/07/29 10:32:18;;;;;;;4.47;2.40;;;;;;;22.97;50.44;101689.09;4951570;28;20035;-66
2022/07/29 10:35:08;;;;;;;5.03;2.50;;;;;;;22.99;50.60;101691.69;4949835;28;20538;-66
2022/07/29 10:38:04;;;;;;;7.45;3.10;;;;;;;23.02;48.97;101700.41;4951919;28;20100;-65
2022/07/29 10:43:29;;;;;;;3.90;2.42;;;;;;;23.17;48.86;101682.75;4948677;28;20104;-67
2022/07/29 10:45:59;;;;;;;5.80;2.50;;;;;;;23.19;48.11;101687.13;4944249;28;20027;-65
2022/07/29 10:48:25;;;;;;;6.35;3.00;;;;;;;23.20;47.95;101685.38;4950159;28;20097;-67
2022/07/29 10:51:00;;;;;;;7.18;3.13;;;;;;;23.18;48.21;101682.78;4950021;28;20035;-65
2022/07/29 10:53:47;;;;;;;5.70;2.70;;;;;;;23.28;48.59;101680.91;4944724;28;20035;-65
2022/07/29 10:56:26;;;;;;;4.63;2.50;;;;;;;23.33;47.98;101679.09;4951442;28;20070;-64
2022/07/29 10:59:18;;;;;;;;;;;;;;;23.41;48.12;101682.47;4949210;28;20154;-64
2022/07/29 11:01:43;;;;;;;7.00;3.05;;;;;;;23.37;47.64;101680.81;4954941;28;19958;-65
2022/07/29 11:04:09;;;;;;;6.38;2.60;;;;;;;23.38;47.61;101686.91;4949508;28;20027;-64
2022/07/29 11:07:07;;;;;;;3.53;2.47;;;;;;;23.45;47.80;101676.31;4946766;28;20027;-66
2022/07/29 11:09:33;;;;;;;6.25;2.47;;;;;;;23.48;47.48;101667.56;4949941;29;20034;-64
2022/07/29 11:11:59;;;;;;;7.32;2.75;;;;;;;23.50;46.69;101671.03;4951370;28;20453;-65
2022/07/29 11:14:57;;;;;;;5.03;2.30;;;;;;;23.61;46.84;101673.50;4945128;28;20085;-65
2022/07/29 11:17:22;;;;;;;5.50;2.67;;;;;;;23.60;47.01;101672.66;4946008;28;20081;-65
2022/07/29 11:19:48;;;;;;;4.60;2.90;;;;;;;23.62;46.35;101670.91;4954348;28;20031;-65
2022/07/29 11:22:32;;;;;;;4.72;2.88;;;;;;;23.67;46.93;101670.84;4950058;28;20047;-66
2022/07/29 11:25:15;;;;;;;7.97;3.25;;;;;;;23.67;46.96;101676.09;4945720;28;20023;-64
2022/07/29 11:27:41;;;;;;;5.25;2.65;;;;;;;23.68;47.19;101678.69;4949940;28;20039;-65
2022/07/29 11:30:09;;;;;;;7.00;3.00;;;;;;;23.70;47.51;101674.28;4947745;28;20043;-65
2022/07/29 11:32:42;;;;;;;4.50;2.10;;;;;;;23.80;48.35;101668.03;4949178;29;20032;-65
2022/07/29 11:35:23;;;;;;;2.95;1.85;;;;;;;23.90;47.63;101666.09;4947350;28;20020;-65
2022/07/29 11:38:22;;;;;;;5.72;2.40;;;;;;;23.98;46.92;101666.88;4947558;28;20501;-65
2022/07/29 11:41:16;;;;;;;4.50;2.10;;;;;;;24.06;47.62;101677.28;4946212;28;20038;-65
2022/07/29 11:43:55;;;;;;;6.47;2.10;;;;;;;24.06;47.49;101677.28;4958211;28;20065;-65
2022/07/29 11:46:39;;;;;;;;;;;;;;;24.14;46.73;101674.53;4950446;28;20066;-65